Time;durP1;ratioP1;P1;durP2;ratioP2;P2;SDS_P1;SDS_P2;PMS_P1;PMS_P2;Temp;Humidity;BMP_temperature;BMP_pressure;BME280_temperature;BME280_humidity;BME280_pressure;Samples;Min_cycle;Max_cycle;Signal;HPM_P1;HPM_P2
2023/12/21 00:01:51;;;;;;;0.73;0.73;;;;;;;4.14;80.96;99194.69;5093538;28;20463;-68
2023/12/21 00:04:20;;;;;;;0.43;0.43;;;;;;;4.12;80.75;99181.19;5092216;28;20555;-68
2023/12/21 00:06:49;;;;;;;0.40;0.40;;;;;;;4.13;81.01;99177.88;5076702;28;20040;-68
2023/12/21 00:09:19;;;;;;;0.40;0.40;;;;;;;4.12;81.25;99176.16;5097619;28;20090;-68
2023/12/21 00:11:48;;;;;;;1.25;1.15;;;;;;;4.12;81.09;99178.69;5097228;28;20279;-68
2023/12/21 00:14:16;;;;;;;0.40;0.40;;;;;;;4.13;81.17;99177.88;5097677;28;20509;-68
2023/12/21 00:16:47;;;;;;;0.40;0.40;;;;;;;4.11;81.12;99179.50;5096318;28;20040;-66
2023/12/21 00:19:16;;;;;;;0.40;0.40;;;;;;;4.07;81.54;99174.41;5097121;28;20639;-68
2023/12/21 00:21:44;;;;;;;0.45;0.45;;;;;;;4.06;81.22;99166.78;5097383;28;20054;-67
2023/12/21 00:24:13;;;;;;;0.30;0.30;;;;;;;4.04;81.21;99166.78;5096964;28;20040;-68
2023/12/21 00:26:42;;;;;;;0.30;0.30;;;;;;;4.02;81.23;99165.06;5097308;28;20036;-68
2023/12/21 00:29:11;;;;;;;0.40;0.40;;;;;;;4.01;81.19;99171.78;5097206;28;20043;-68
2023/12/21 00:31:40;;;;;;;0.32;0.32;;;;;;;3.92;81.42;99164.03;5097168;28;20638;-68
2023/12/21 00:34:10;;;;;;;0.50;0.50;;;;;;;3.85;80.98;99164.75;5096975;28;20040;-68
2023/12/21 00:36:39;;;;;;;0.60;0.60;;;;;;;3.76;81.28;99161.22;5097095;28;20044;-68
2023/12/21 00:39:08;;;;;;;0.50;0.50;;;;;;;3.65;82.13;99163.53;5097015;28;20072;-67
2023/12/21 00:41:37;;;;;;;0.50;0.50;;;;;;;3.55;82.11;99161.69;5096762;28;20490;-67
2023/12/21 00:44:06;;;;;;;0.40;0.40;;;;;;;3.47;82.34;99155.66;5096394;28;20047;-67
2023/12/21 00:46:35;;;;;;;0.40;0.40;;;;;;;3.42;82.63;99153.84;5096904;28;20140;-68
2023/12/21 00:49:04;;;;;;;0.60;0.60;;;;;;;3.35;83.41;99151.25;5096515;28;20043;-68
2023/12/21 00:51:34;;;;;;;0.40;0.40;;;;;;;3.34;83.13;99156.22;5096589;28;20097;-68
2023/12/21 00:54:03;;;;;;;0.40;0.40;;;;;;;3.33;83.67;99152.88;5096489;28;20038;-68
2023/12/21 00:56:32;;;;;;;0.52;0.52;;;;;;;3.25;83.95;99133.38;5096247;28;20036;-68
2023/12/21 00:59:03;;;;;;;0.40;0.40;;;;;;;3.37;84.16;99141.16;5096687;28;20135;-68
2023/12/21 01:01:32;;;;;;;0.40;0.40;;;;;;;3.37;84.42;99146.22;5096646;28;20040;-68
2023/12/21 01:04:01;;;;;;;0.52;0.52;;;;;;;3.39;84.11;99149.59;5096259;28;20068;-67
2023/12/21 01:06:30;;;;;;;0.50;0.50;;;;;;;3.39;84.50;99149.59;5096345;28;20039;-68
2023/12/21 01:09:00;;;;;;;2.00;1.07;;;;;;;3.37;84.20;99136.13;5096261;28;20044;-68
2023/12/21 01:11:29;;;;;;;0.50;0.50;;;;;;;3.29;84.53;99132.59;5095228;28;20098;-68
2023/12/21 01:13:58;;;;;;;0.40;0.40;;;;;;;3.26;84.78;99132.56;5078285;28;20131;-68
2023/12/21 01:16:27;;;;;;;0.40;0.40;;;;;;;3.23;85.04;99132.50;5096158;28;20520;-68
2023/12/21 01:18:56;;;;;;;0.40;0.40;;;;;;;3.17;85.17;99117.22;5095507;28;20121;-68
2023/12/21 01:21:25;;;;;;;0.40;0.40;;;;;;;3.17;85.71;99114.72;5095115;28;20126;-67
2023/12/21 01:23:53;;;;;;;0.30;0.30;;;;;;;3.12;85.31;99118.84;5096228;28;20131;-67
2023/12/21 01:26:25;;;;;;;0.30;0.30;;;;;;;3.10;85.11;99117.94;5096110;28;20040;-68
2023/12/21 01:28:54;;;;;;;0.30;0.30;;;;;;;3.08;85.44;99117.06;5096142;28;20048;-68
2023/12/21 01:31:23;;;;;;;0.30;0.30;;;;;;;3.07;85.51;99115.38;5096878;28;20093;-67
2023/12/21 01:33:52;;;;;;;0.30;0.30;;;;;;;3.09;85.56;99117.13;5096062;28;20036;-68
2023/12/21 01:36:21;;;;;;;0.70;0.70;;;;;;;3.09;86.27;99111.22;5095590;28;20509;-68
2023/12/21 01:38:50;;;;;;;0.30;0.30;;;;;;;2.97;85.80;99093.34;5095602;28;20124;-68
2023/12/21 01:41:19;;;;;;;0.50;0.50;;;;;;;3.01;86.30;99090.03;5095694;28;20056;-69
2023/12/21 01:43:49;;;;;;;0.35;0.35;;;;;;;3.00;86.59;99078.28;5095619;28;20028;-68
2023/12/21 01:46:18;;;;;;;0.38;0.38;;;;;;;2.95;86.66;99080.69;5095706;28;20040;-69
2023/12/21 01:48:48;;;;;;;0.67;0.67;;;;;;;2.97;86.25;99083.25;5095711;28;20044;-68
2023/12/21 01:51:16;;;;;;;;;;;;;;;2.97;86.73;99074.03;5096029;28;20283;-68
2023/12/21 01:53:46;;;;;;;0.40;0.40;;;;;;;2.96;86.56;99071.47;5095598;28;19920;-68
2023/12/21 01:56:15;;;;;;;0.70;0.70;;;;;;;2.92;86.42;99075.59;5095640;28;20060;-68
2023/12/21 01:58:44;;;;;;;0.50;0.50;;;;;;;2.88;86.81;99083.06;5095166;28;20491;-68
2023/12/21 02:01:17;;;;;;;0.90;0.82;;;;;;;2.81;86.58;99086.28;5095034;28;20054;-68
2023/12/21 02:03:46;;;;;;;0.30;0.30;;;;;;;2.76;86.39;99095.44;5095156;28;20509;-69
2023/12/21 02:06:15;;;;;;;1.75;0.63;;;;;;;2.73;86.66;99094.50;5095647;28;20078;-68
2023/12/21 02:08:44;;;;;;;1.00;1.00;;;;;;;2.65;87.08;99091.00;5095277;28;20070;-68
2023/12/21 02:11:13;;;;;;;0.40;0.40;;;;;;;2.56;86.20;99089.97;5094967;28;20296;-69
2023/12/21 02:13:42;;;;;;;0.30;0.30;;;;;;;2.51;86.74;99087.34;5095528;28;20478;-68
2023/12/21 02:16:18;;;;;;;0.40;0.40;;;;;;;2.43;87.29;99073.75;5094846;28;20047;-68
2023/12/21 02:18:47;;;;;;;0.30;0.30;;;;;;;2.36;87.56;99046.72;5093909;28;20048;-68
2023/12/21 02:21:17;;;;;;;0.77;0.77;;;;;;;2.46;87.33;99058.69;5095344;28;20069;-68
2023/12/21 02:23:48;;;;;;;0.35;0.35;;;;;;;2.49;86.92;99053.75;5095183;28;20429;-68
2023/12/21 02:26:18;;;;;;;0.40;0.40;;;;;;;2.51;87.28;99047.06;5095307;28;20055;-68
2023/12/21 02:28:47;;;;;;;0.43;0.43;;;;;;;2.52;87.09;99048.75;5094895;28;20394;-68
2023/12/21 02:31:16;;;;;;;0.60;0.60;;;;;;;2.55;87.89;99048.81;5094442;28;20482;-68
2023/12/21 02:33:45;;;;;;;0.73;0.73;;;;;;;2.59;87.44;99055.59;5094784;28;20285;-68
2023/12/21 02:36:14;;;;;;;0.47;0.47;;;;;;;2.60;88.02;99057.31;5094803;28;20047;-68
2023/12/21 02:38:43;;;;;;;0.43;0.43;;;;;;;2.57;87.61;99052.22;5094763;28;20428;-68
2023/12/21 02:41:12;;;;;;;0.40;0.40;;;;;;;2.55;87.53;99051.34;5094689;28;20032;-68
2023/12/21 02:43:42;;;;;;;0.60;0.60;;;;;;;2.54;87.48;99053.84;5093108;28;20048;-68
2023/12/21 02:46:11;;;;;;;0.38;0.38;;;;;;;2.56;87.87;99055.56;5093767;28;20052;-68
2023/12/21 02:48:40;;;;;;;0.63;0.63;;;;;;;2.51;87.56;99049.59;5094374;28;20411;-68
2023/12/21 02:51:09;;;;;;;3.20;1.23;;;;;;;2.55;87.64;99053.84;5094826;28;20032;-68
2023/12/21 02:53:39;;;;;;;0.97;0.97;;;;;;;2.56;87.61;99050.53;5094186;28;20040;-67
2023/12/21 02:56:08;;;;;;;0.30;0.30;;;;;;;2.58;88.09;99046.38;5094532;28;20047;-68
2023/12/21 02:58:37;;;;;;;0.43;0.43;;;;;;;2.56;88.37;99029.53;5094572;28;20048;-68
2023/12/21 03:01:08;;;;;;;;;;;;;;;2.61;87.89;99033.84;5094294;28;20455;-68
2023/12/21 03:03:37;;;;;;;0.38;0.38;;;;;;;2.60;88.15;99027.09;5094312;28;20370;-68
2023/12/21 03:06:07;;;;;;;0.50;0.50;;;;;;;2.64;88.17;99033.03;5094568;28;20491;-68
2023/12/21 03:08:35;;;;;;;;;;;;;;;2.63;88.30;99018.75;5094320;28;20043;-68
2023/12/21 03:11:04;;;;;;;0.50;0.50;;;;;;;2.65;88.39;99024.66;5076377;28;19919;-68
2023/12/21 03:13:33;;;;;;;0.55;0.55;;;;;;;2.65;88.21;99017.97;5093833;28;20047;-68
2023/12/21 03:16:05;;;;;;;27.90;1.35;;;;;;;2.68;88.08;99025.59;5094689;28;20032;-68
2023/12/21 03:18:36;;;;;;;0.47;0.47;;;;;;;2.62;88.28;99012.84;5094437;28;20048;-68
2023/12/21 03:21:05;;;;;;;0.40;0.40;;;;;;;2.72;88.24;99022.31;5093994;28;20043;-68
2023/12/21 03:23:35;;;;;;;0.50;0.50;;;;;;;2.75;88.33;99026.56;5094241;28;20431;-69
2023/12/21 03:26:04;;;;;;;1.05;1.05;;;;;;;2.76;88.84;99013.13;5094096;28;20036;-68
2023/12/21 03:28:33;;;;;;;0.50;0.50;;;;;;;2.78;88.79;99020.72;5093848;28;20379;-68
2023/12/21 03:31:02;;;;;;;0.50;0.50;;;;;;;2.79;88.62;99005.63;5094047;28;20101;-67
2023/12/21 03:33:31;;;;;;;0.30;0.30;;;;;;;2.82;88.90;99008.22;5092944;28;20044;-68
2023/12/21 03:36:02;;;;;;;0.50;0.50;;;;;;;2.85;88.88;99007.41;5093467;28;20505;-68
2023/12/21 03:38:31;;;;;;;0.70;0.70;;;;;;;2.85;88.43;98997.34;5094052;28;20048;-68
2023/12/21 03:40:59;;;;;;;0.43;0.43;;;;;;;2.86;89.08;98991.47;5093501;28;20393;-68
2023/12/21 03:43:28;;;;;;;0.70;0.70;;;;;;;2.89;88.90;98976.41;5097028;28;20113;-68
2023/12/21 03:45:59;;;;;;;0.40;0.40;;;;;;;2.90;88.74;98970.56;5097931;28;20067;-68
2023/12/21 03:48:28;;;;;;;0.22;0.22;;;;;;;2.92;88.77;98968.91;5080016;28;20225;-68
2023/12/21 03:50:57;;;;;;;0.68;0.68;;;;;;;2.92;88.66;98958.84;5097475;28;20046;-69
2023/12/21 03:53:27;;;;;;;0.83;0.83;;;;;;;2.91;89.13;98952.09;5097816;28;20036;-68
2023/12/21 03:55:56;;;;;;;0.40;0.40;;;;;;;2.91;89.02;98942.84;5098420;28;20383;-68
2023/12/21 03:58:25;;;;;;;0.27;0.27;;;;;;;2.93;89.09;98935.34;5097991;28;20039;-68
2023/12/21 04:00:54;;;;;;;0.90;0.90;;;;;;;2.93;89.14;98932.84;5097170;28;20288;-68
2023/12/21 04:03:23;;;;;;;1.92;1.10;;;;;;;2.92;89.02;98918.53;5097657;28;20040;-68
2023/12/21 04:05:53;;;;;;;0.90;0.90;;;;;;;2.92;88.77;98924.41;5097249;28;20040;-68
2023/12/21 04:08:22;;;;;;;0.50;0.50;;;;;;;2.90;88.80;98921.03;5097809;28;20052;-68
2023/12/21 04:10:52;;;;;;;1.13;1.10;;;;;;;2.88;89.09;98916.78;5097426;28;20071;-68
2023/12/21 04:13:21;;;;;;;0.63;0.63;;;;;;;2.81;89.41;98903.22;5097517;28;20089;-68
2023/12/21 04:15:51;;;;;;;0.40;0.40;;;;;;;2.85;88.98;98929.31;5097476;28;20036;-68
2023/12/21 04:18:20;;;;;;;0.22;0.22;;;;;;;2.83;88.60;98918.38;5097061;28;20047;-68
2023/12/21 04:20:48;;;;;;;0.50;0.50;;;;;;;2.80;89.64;98918.31;5096897;28;20127;-68
2023/12/21 04:23:18;;;;;;;;;;;;;;;2.79;88.89;98916.59;5097336;28;20502;-68
2023/12/21 04:25:47;;;;;;;0.40;0.40;;;;;;;2.77;89.54;98924.13;5096887;28;19927;-68
2023/12/21 04:28:17;;;;;;;0.50;0.50;;;;;;;2.71;89.33;98909.75;5097061;28;20490;-68
2023/12/21 04:30:46;;;;;;;0.57;0.57;;;;;;;2.76;89.52;98911.53;5097115;28;20051;-68
2023/12/21 04:33:15;;;;;;;0.55;0.55;;;;;;;2.76;89.02;98901.44;5096984;28;20090;-68
2023/12/21 04:35:45;;;;;;;0.50;0.50;;;;;;;2.73;89.24;98885.44;5096996;28;20581;-68
2023/12/21 04:38:13;;;;;;;0.35;0.35;;;;;;;2.76;89.27;98886.34;5095462;28;20587;-68
2023/12/21 04:40:42;;;;;;;0.40;0.40;;;;;;;2.76;89.93;98886.34;5096924;28;20043;-69
2023/12/21 04:43:11;;;;;;;0.40;0.40;;;;;;;2.78;89.97;98882.16;5095881;28;20036;-68
2023/12/21 04:45:42;;;;;;;1.90;1.08;;;;;;;2.80;89.95;98883.88;5097124;28;20284;-68
2023/12/21 04:48:11;;;;;;;0.50;0.50;;;;;;;2.81;90.00;98870.47;5095564;28;20040;-68
2023/12/21 04:50:40;;;;;;;0.40;0.40;;;;;;;2.85;90.05;98858.78;5096665;28;20463;-68
2023/12/21 04:53:09;;;;;;;0.40;0.40;;;;;;;2.87;89.86;98849.56;5096596;28;20065;-68
2023/12/21 04:55:38;;;;;;;0.50;0.50;;;;;;;2.92;89.77;98853.00;5096423;28;20048;-68
2023/12/21 04:58:07;;;;;;;1.05;1.05;;;;;;;2.94;90.13;98833.72;5096513;28;20040;-68
2023/12/21 05:00:36;;;;;;;0.80;0.80;;;;;;;3.02;90.19;98838.06;5096256;28;20508;-68
2023/12/21 05:03:06;;;;;;;1.07;1.07;;;;;;;3.09;90.01;98839.00;5095184;28;20097;-68
2023/12/21 05:05:35;;;;;;;0.38;0.38;;;;;;;3.14;90.47;98830.66;5096361;28;20058;-68
2023/12/21 05:08:04;;;;;;;0.40;0.40;;;;;;;3.19;90.58;98818.16;5096454;28;20067;-69
2023/12/21 05:10:33;;;;;;;;;;;;;;;3.23;90.67;98814.84;5096760;28;20131;-68
2023/12/21 05:13:02;;;;;;;0.68;0.68;;;;;;;3.29;90.31;98809.88;5095876;28;20019;-68
2023/12/21 05:15:31;;;;;;;0.80;0.77;;;;;;;3.35;90.17;98794.84;5096729;28;20486;-68
2023/12/21 05:18:00;;;;;;;0.60;0.60;;;;;;;3.39;90.48;98792.38;5096238;28;20047;-68
2023/12/21 05:20:30;;;;;;;0.80;0.80;;;;;;;3.43;90.14;98792.44;5096503;28;20379;-68
2023/12/21 05:22:59;;;;;;;0.30;0.30;;;;;;;3.38;90.36;98784.81;5096171;28;20032;-68
2023/12/21 05:25:28;;;;;;;;;;;;;;;3.54;90.63;98806.88;5096671;28;20131;-68
2023/12/21 05:27:57;;;;;;;0.43;0.43;;;;;;;3.54;90.09;98790.88;5095715;28;19923;-68
2023/12/21 05:30:26;;;;;;;0.57;0.57;;;;;;;3.68;90.02;98802.84;5095997;28;20068;-68
2023/12/21 05:32:55;;;;;;;0.40;0.40;;;;;;;3.72;90.18;98802.03;5095615;28;20478;-68
2023/12/21 05:35:25;;;;;;;0.30;0.30;;;;;;;3.73;89.97;98788.59;5094633;28;20044;-68
2023/12/21 05:37:55;;;;;;;0.38;0.38;;;;;;;3.83;89.95;98795.44;5095869;28;20050;-68
2023/12/21 05:40:24;;;;;;;0.50;0.50;;;;;;;3.91;89.55;98809.00;5096052;28;20070;-68
2023/12/21 05:42:53;;;;;;;0.40;0.40;;;;;;;3.93;89.46;98807.34;5095768;28;20139;-68
2023/12/21 05:45:22;;;;;;;0.50;0.50;;;;;;;3.96;89.55;98802.31;5095086;28;20124;-68
2023/12/21 05:47:51;;;;;;;0.53;0.53;;;;;;;3.97;89.51;98798.13;5095360;28;20036;-68
2023/12/21 05:50:19;;;;;;;0.40;0.40;;;;;;;3.98;89.01;98800.66;5095317;28;20093;-69
2023/12/21 05:52:48;;;;;;;0.40;0.40;;;;;;;3.99;88.76;98782.16;5094321;28;20277;-68
2023/12/21 05:55:19;;;;;;;0.38;0.38;;;;;;;3.99;89.01;98781.31;5095168;28;20425;-68
2023/12/21 05:57:48;;;;;;;0.50;0.50;;;;;;;3.98;88.75;98782.97;5095451;28;20139;-68
2023/12/21 06:00:17;;;;;;;0.50;0.50;;;;;;;3.96;88.92;98779.59;5095101;28;20553;-68
2023/12/21 06:02:47;;;;;;;0.30;0.30;;;;;;;3.94;88.88;98773.69;5094021;28;20082;-67
2023/12/21 06:05:17;;;;;;;0.47;0.47;;;;;;;3.93;89.17;98761.94;5094620;28;20043;-67
2023/12/21 06:07:45;;;;;;;0.40;0.40;;;;;;;3.94;88.99;98758.56;5095102;28;20051;-67
2023/12/21 06:10:14;;;;;;;0.50;0.50;;;;;;;3.92;89.09;98755.16;5095106;28;20071;-67
2023/12/21 06:12:44;;;;;;;0.40;0.40;;;;;;;3.93;89.01;98751.84;5095117;28;20049;-68
2023/12/21 06:15:14;;;;;;;0.30;0.30;;;;;;;3.90;88.89;98750.94;5093659;28;20044;-67
2023/12/21 06:17:42;;;;;;;0.50;0.50;;;;;;;3.90;89.35;98751.78;5095126;28;20040;-68
2023/12/21 06:20:12;;;;;;;0.95;0.95;;;;;;;3.90;89.20;98741.69;5094742;28;20036;-68
2023/12/21 06:22:40;;;;;;;;;;;;;;;3.88;89.74;98740.84;5095530;28;20111;-68
2023/12/21 06:25:11;;;;;;;0.52;0.52;;;;;;;3.88;89.75;98747.56;5094622;28;19920;-68
2023/12/21 06:27:40;;;;;;;0.40;0.40;;;;;;;3.87;90.10;98754.28;5094944;28;20092;-69
2023/12/21 06:30:11;;;;;;;0.30;0.30;;;;;;;3.86;90.07;98750.03;5094908;28;20044;-69
2023/12/21 06:32:41;;;;;;;0.45;0.45;;;;;;;3.88;90.37;98753.47;5094952;28;20040;-69
2023/12/21 06:35:10;;;;;;;0.47;0.47;;;;;;;3.83;90.59;98746.66;5094998;28;20044;-69
2023/12/21 06:37:39;;;;;;;0.55;0.55;;;;;;;3.90;90.19;98754.31;5094812;28;20067;-69
2023/12/21 06:40:09;;;;;;;0.40;0.40;;;;;;;3.96;90.80;98741.75;5094517;28;20052;-68
2023/12/21 06:42:38;;;;;;;0.40;0.40;;;;;;;3.91;90.49;98718.13;5094849;28;20402;-68
2023/12/21 06:45:07;;;;;;;0.27;0.27;;;;;;;4.16;90.49;98756.25;5093133;28;20040;-68
2023/12/21 06:47:38;;;;;;;;;;;;;;;4.18;90.45;98757.94;5094540;28;20044;-68
2023/12/21 06:50:08;;;;;;;0.32;0.32;;;;;;;4.19;90.62;98753.75;5095057;28;19955;-68
2023/12/21 06:52:38;;;;;;;0.30;0.30;;;;;;;4.10;90.71;98749.47;5094902;28;20052;-68
2023/12/21 06:55:08;;;;;;;0.40;0.40;;;;;;;4.21;90.84;98757.13;5094080;28;20486;-68
2023/12/21 06:57:37;;;;;;;0.30;0.30;;;;;;;4.24;90.73;98762.22;5094714;28;20036;-67
2023/12/21 07:00:07;;;;;;;0.30;0.30;;;;;;;4.22;90.50;98756.31;5094120;28;20494;-68
2023/12/21 07:02:38;;;;;;;0.30;0.30;;;;;;;4.19;90.82;98756.28;5092968;28;20051;-67
2023/12/21 07:05:08;;;;;;;0.30;0.30;;;;;;;4.21;90.69;98757.13;5094108;28;20478;-67
2023/12/21 07:07:37;;;;;;;0.30;0.30;;;;;;;4.20;91.14;98755.47;5094133;28;20036;-68
2023/12/21 07:10:07;;;;;;;0.40;0.40;;;;;;;4.22;91.09;98753.78;5093967;28;20040;-68
2023/12/21 07:12:36;;;;;;;0.50;0.50;;;;;;;4.16;91.35;98731.00;5094265;28;20066;-68
2023/12/21 07:15:06;;;;;;;0.77;0.77;;;;;;;4.24;91.51;98742.00;5092691;28;20044;-68
2023/12/21 07:17:35;;;;;;;4.75;2.15;;;;;;;4.24;91.35;98747.91;5093835;28;20285;-67
2023/12/21 07:20:08;;;;;;;0.57;0.57;;;;;;;4.22;91.58;98733.59;5080355;28;20449;-67
2023/12/21 07:22:37;;;;;;;0.40;0.40;;;;;;;4.27;91.46;98752.16;5074059;28;20135;-67
2023/12/21 07:25:06;;;;;;;;;;;;;;;4.28;91.78;98744.56;5074564;28;20452;-66
2023/12/21 07:27:36;;;;;;;0.40;0.40;;;;;;;4.30;91.93;98747.09;5073649;28;20411;-67
2023/12/21 07:30:06;;;;;;;0.30;0.30;;;;;;;4.31;91.92;98743.75;5073628;28;20449;-67
2023/12/21 07:32:35;;;;;;;1.30;1.20;;;;;;;4.23;92.35;98725.16;5074074;28;20052;-68
2023/12/21 07:35:04;;;;;;;0.40;0.40;;;;;;;4.30;92.12;98739.53;5072488;28;20048;-68
2023/12/21 07:37:34;;;;;;;0.30;0.30;;;;;;;4.30;92.22;98732.81;5074022;28;20437;-67
2023/12/21 07:40:04;;;;;;;0.30;0.30;;;;;;;4.34;92.50;98743.78;5073959;28;20439;-68
2023/12/21 07:42:33;;;;;;;0.52;0.52;;;;;;;4.35;92.31;98745.47;5073612;28;20135;-67
2023/12/21 07:45:02;;;;;;;0.30;0.30;;;;;;;4.38;92.57;98741.31;5073292;28;20091;-68
2023/12/21 07:47:30;;;;;;;0.30;0.30;;;;;;;4.39;93.10;98737.94;5073210;28;20045;-67
2023/12/21 07:49:59;;;;;;;0.40;0.40;;;;;;;4.39;93.11;98737.09;5073239;28;20498;-68
2023/12/21 07:52:28;;;;;;;0.52;0.52;;;;;;;4.40;92.81;98738.78;5072217;28;20068;-68
2023/12/21 07:54:59;;;;;;;0.88;0.88;;;;;;;4.39;93.40;98727.81;5073480;28;20048;-69
2023/12/21 07:57:28;;;;;;;1.58;1.30;;;;;;;4.42;93.33;98722.81;5074090;28;20115;-68
2023/12/21 07:59:57;;;;;;;0.47;0.47;;;;;;;4.44;93.65;98725.38;5072833;28;20058;-68
2023/12/21 08:02:26;;;;;;;0.40;0.40;;;;;;;4.45;93.58;98719.47;5073171;28;20040;-67
2023/12/21 08:04:54;;;;;;;0.30;0.30;;;;;;;4.48;93.75;98722.03;5073415;28;20082;-68
2023/12/21 08:07:24;;;;;;;;;;;;;;;4.50;94.10;98725.41;5073634;28;20159;-67
2023/12/21 08:09:52;;;;;;;0.30;0.30;;;;;;;4.52;93.89;98723.72;5073431;28;19964;-67
2023/12/21 08:12:23;;;;;;;0.50;0.50;;;;;;;4.51;93.80;98711.94;5072956;28;20044;-67
2023/12/21 08:14:51;;;;;;;0.25;0.25;;;;;;;4.52;93.95;98714.47;5073335;28;20052;-68
2023/12/21 08:17:20;;;;;;;0.30;0.30;;;;;;;4.52;94.18;98713.63;5073017;28;20047;-68
2023/12/21 08:19:49;;;;;;;0.30;0.30;;;;;;;4.51;94.16;98701.84;5073437;28;20557;-68
2023/12/21 08:22:18;;;;;;;0.40;0.40;;;;;;;4.49;94.31;98703.50;5072993;28;20518;-67
2023/12/21 08:24:47;;;;;;;1.80;1.70;;;;;;;4.47;94.19;98698.44;5071977;28;20037;-67
2023/12/21 08:27:16;;;;;;;0.30;0.30;;;;;;;4.47;94.34;98705.16;5073330;28;20135;-67
2023/12/21 08:29:46;;;;;;;0.40;0.40;;;;;;;4.45;94.37;98701.78;5076713;28;20486;-67
2023/12/21 08:32:14;;;;;;;0.50;0.50;;;;;;;4.44;94.61;98700.09;5077240;28;20273;-67
2023/12/21 08:34:43;;;;;;;0.50;0.50;;;;;;;4.43;94.72;98703.44;5076816;28;20071;-67
2023/12/21 08:37:13;;;;;;;0.47;0.43;;;;;;;4.43;94.90;98703.44;5075574;28;20072;-67
2023/12/21 08:39:42;;;;;;;1.25;1.15;;;;;;;4.43;94.45;98694.22;5076398;28;20133;-67
2023/12/21 08:42:11;;;;;;;1.53;1.43;;;;;;;4.47;94.93;98690.00;5076431;28;20403;-68
2023/12/21 08:44:41;;;;;;;1.30;1.20;;;;;;;4.47;95.11;98692.53;5076826;28;20058;-68
2023/12/21 08:47:15;;;;;;;3.00;1.75;;;;;;;4.49;94.86;98683.28;5076470;28;20103;-68
2023/12/21 08:49:45;;;;;;;1.75;1.60;;;;;;;4.48;94.97;98679.09;5076331;28;20490;-68
2023/12/21 08:52:13;;;;;;;1.17;1.08;;;;;;;4.48;95.19;98679.09;5076420;28;20402;-68
2023/12/21 08:54:42;;;;;;;1.60;1.50;;;;;;;4.49;95.46;98678.22;5076807;28;20036;-68
2023/12/21 08:57:13;;;;;;;1.23;1.10;;;;;;;4.46;95.28;98663.06;5076467;28;20284;-68
2023/12/21 08:59:41;;;;;;;0.52;0.52;;;;;;;4.52;95.08;98665.63;5075919;28;20285;-68
2023/12/21 09:02:11;;;;;;;0.77;0.77;;;;;;;4.53;95.31;98657.22;5076009;28;20044;-68
2023/12/21 09:04:41;;;;;;;0.65;0.65;;;;;;;4.54;95.57;98656.38;5076286;28;20048;-67
2023/12/21 09:07:10;;;;;;;0.55;0.55;;;;;;;4.54;95.38;98647.13;5076476;28;20036;-67
2023/12/21 09:09:39;;;;;;;;;;;;;;;4.56;95.31;98645.44;5076308;28;20513;-68
2023/12/21 09:12:10;;;;;;;1.33;1.23;;;;;;;4.57;95.27;98636.19;5075961;28;19970;-68
2023/12/21 09:14:39;;;;;;;1.40;1.27;;;;;;;4.54;95.25;98631.97;5075848;28;20047;-68
2023/12/21 09:17:07;;;;;;;1.17;1.07;;;;;;;4.53;95.53;98629.44;5076090;28;20437;-67
2023/12/21 09:19:36;;;;;;;1.25;1.15;;;;;;;4.51;95.47;98623.53;5075680;28;20296;-68
2023/12/21 09:22:08;;;;;;;1.88;1.70;;;;;;;4.45;95.31;98621.81;5075920;28;20048;-68
2023/12/21 09:24:38;;;;;;;2.55;2.35;;;;;;;4.37;95.46;98607.41;5076244;28;20054;-68
2023/12/21 09:27:07;;;;;;;1.60;1.50;;;;;;;4.37;95.66;98609.94;5075797;28;20041;-68
2023/12/21 09:29:36;;;;;;;5.47;2.53;;;;;;;4.35;95.20;98599.00;5086244;28;20040;-69
2023/12/21 09:32:06;;;;;;;2.88;2.67;;;;;;;4.31;95.52;98593.09;5096002;28;20094;-68
2023/12/21 09:34:35;;;;;;;1.77;1.67;;;;;;;4.29;95.12;98588.88;5096061;28;20047;-67
2023/12/21 09:37:05;;;;;;;1.30;1.20;;;;;;;4.25;95.66;98587.16;5095780;28;20062;-67
2023/12/21 09:39:35;;;;;;;3.20;2.90;;;;;;;4.22;95.44;98572.00;5094584;28;20127;-68
2023/12/21 09:42:04;;;;;;;2.28;1.83;;;;;;;4.23;95.58;98563.56;5095797;28;20043;-68
2023/12/21 09:44:34;;;;;;;2.00;1.83;;;;;;;4.19;95.82;98552.63;5095428;28;20087;-67
2023/12/21 09:47:05;;;;;;;0.80;0.80;;;;;;;4.17;95.76;98543.34;5095284;28;20047;-68
2023/12/21 09:49:36;;;;;;;1.98;1.88;;;;;;;4.12;95.83;98534.91;5095701;28;20075;-67
2023/12/21 09:52:08;;;;;;;2.15;1.95;;;;;;;4.15;95.79;98522.31;5095348;28;20076;-67
2023/12/21 09:54:41;;;;;;;4.03;2.75;;;;;;;4.10;95.67;98491.13;5095631;28;20490;-66
2023/12/21 09:57:10;;;;;;;2.65;2.45;;;;;;;4.20;95.75;98506.31;5094246;28;20083;-68
2023/12/21 09:59:39;;;;;;;;;;;;;;;4.23;95.82;98502.97;5095570;28;20502;-68
2023/12/21 10:02:11;;;;;;;1.50;1.42;;;;;;;4.22;95.91;98496.25;5094926;28;19920;-67
2023/12/21 10:04:42;;;;;;;1.92;1.83;;;;;;;4.25;95.82;98494.56;5095318;28;20105;-66
2023/12/21 10:07:12;;;;;;;2.67;2.47;;;;;;;4.25;96.12;98497.09;5094948;28;20051;-67
2023/12/21 10:09:45;;;;;;;2.45;2.25;;;;;;;4.21;96.11;98481.91;5095189;28;20098;-69
2023/12/21 10:12:14;;;;;;;1.55;1.33;;;;;;;4.27;96.33;98489.53;5094880;28;20047;-68
2023/12/21 10:14:44;;;;;;;1.33;1.23;;;;;;;4.27;96.34;98474.41;5095223;28;20036;-68
2023/12/21 10:17:12;;;;;;;;;;;;;;;4.28;96.12;98481.13;5094085;28;20052;-69
2023/12/21 10:19:45;;;;;;;3.73;3.43;;;;;;;4.30;96.26;98469.34;5094794;28;19920;-68
2023/12/21 10:22:15;;;;;;;2.50;1.92;;;;;;;4.34;96.47;98466.84;5095331;28;20277;-68
2023/12/21 10:24:46;;;;;;;6.20;3.03;;;;;;;4.34;96.48;98455.91;5094636;28;20044;-68
2023/12/21 10:27:16;;;;;;;1.48;1.38;;;;;;;4.40;96.68;98455.91;5094641;28;20606;-67
2023/12/21 10:29:53;;;;;;;1.80;1.70;;;;;;;4.32;96.57;98424.75;5094809;28;20059;-67
2023/12/21 10:32:21;;;;;;;2.03;1.90;;;;;;;4.41;96.84;98428.16;5095395;28;20127;-67
2023/12/21 10:34:50;;;;;;;1.73;1.60;;;;;;;4.46;96.79;98423.13;5094499;28;20040;-68
2023/12/21 10:37:20;;;;;;;3.28;1.30;;;;;;;4.48;96.86;98423.97;5094710;28;20036;-68
2023/12/21 10:39:50;;;;;;;31.98;4.72;;;;;;;4.48;97.17;98413.84;5094393;28;20558;-67
2023/12/21 10:42:19;;;;;;;2.55;2.38;;;;;;;4.52;97.18;98395.34;5094858;28;20505;-68
2023/12/21 10:44:49;;;;;;;0.85;0.85;;;;;;;4.55;97.17;98375.16;5094319;28;20052;-67
2023/12/21 10:47:17;;;;;;;;;;;;;;;4.58;97.09;98375.16;5094684;28;20134;-67
2023/12/21 10:49:46;;;;;;;1.80;1.70;;;;;;;4.60;97.15;98363.38;5092893;28;20019;-67
2023/12/21 10:52:18;;;;;;;2.42;2.22;;;;;;;4.57;97.83;98344.00;5094076;28;20316;-68
2023/12/21 10:54:49;;;;;;;6.47;1.13;;;;;;;4.64;97.63;98349.88;5094088;28;20074;-67
2023/12/21 10:57:19;;;;;;;;;;;;;;;4.62;97.64;98336.41;5094885;28;20028;-67
2023/12/21 10:59:49;;;;;;;1.20;1.17;;;;;;;4.60;97.58;98338.09;5093933;28;20347;-67
2023/12/21 11:02:19;;;;;;;1.65;1.55;;;;;;;4.57;97.81;98338.09;5094097;28;20036;-66
2023/12/21 11:04:49;;;;;;;1.50;1.40;;;;;;;4.56;97.31;98326.28;5094332;28;20138;-67
2023/12/21 11:07:20;;;;;;;1.88;1.75;;;;;;;4.53;97.47;98321.25;5094272;28;20125;-67
2023/12/21 11:09:50;;;;;;;1.98;1.80;;;;;;;4.55;97.66;98314.53;5093999;28;20040;-67
2023/12/21 11:12:21;;;;;;;2.15;1.88;;;;;;;4.55;97.58;98304.41;5093016;28;20044;-67
2023/12/21 11:14:50;;;;;;;2.70;2.50;;;;;;;4.55;97.88;98299.38;5094196;28;20051;-67
2023/12/21 11:17:19;;;;;;;3.30;2.15;;;;;;;4.55;98.11;98299.38;5093931;28;20054;-67
2023/12/21 11:19:49;;;;;;;1.05;1.00;;;;;;;4.55;97.99;98296.84;5092727;28;20048;-67
2023/12/21 11:22:21;;;;;;;3.25;2.88;;;;;;;4.57;97.77;98277.47;5093741;28;20043;-68
2023/12/21 11:25:00;;;;;;;4.75;1.77;;;;;;;4.58;98.15;98279.16;5094260;28;20105;-66
2023/12/21 11:27:31;;;;;;;2.58;1.83;;;;;;;4.60;98.02;98264.84;5093775;28;20545;-67
2023/12/21 11:30:10;;;;;;;1.98;1.83;;;;;;;4.63;98.15;98262.31;5093814;28;20067;-67
2023/12/21 11:32:42;;;;;;;1.65;1.55;;;;;;;4.65;98.13;98258.09;5094318;28;20146;-67
2023/12/21 11:35:20;;;;;;;2.47;2.28;;;;;;;4.66;98.21;98257.25;5093897;28;20089;-67
2023/12/21 11:37:54;;;;;;;3.17;2.53;;;;;;;4.64;98.11;98236.19;5093693;28;20036;-68
2023/12/21 11:40:24;;;;;;;0.80;0.80;;;;;;;4.68;98.50;98230.28;5093136;28;20093;-67
2023/12/21 11:42:55;;;;;;;2.30;2.13;;;;;;;4.72;98.96;98219.38;5093435;28;20490;-67
2023/12/21 11:45:26;;;;;;;0.90;0.90;;;;;;;4.75;98.65;98201.69;5093541;28;20048;-67
2023/12/21 11:47:56;;;;;;;1.15;1.05;;;;;;;4.78;98.66;98196.59;5093620;28;20166;-67
2023/12/21 11:50:29;;;;;;;1.58;1.42;;;;;;;4.79;98.74;98190.72;5093229;28;20044;-67
2023/12/21 11:53:11;;;;;;;1.80;1.70;;;;;;;4.84;98.63;98189.03;5092357;28;20505;-67
2023/12/21 11:55:44;;;;;;;2.17;1.75;;;;;;;4.85;98.42;98183.09;5093526;28;20127;-66
2023/12/21 11:58:19;;;;;;;1.70;1.60;;;;;;;4.86;99.30;98169.63;5093973;28;20040;-66